Time;durP1;ratioP1;P1;durP2;ratioP2;P2;SDS_P1;SDS_P2;PMS_P1;PMS_P2;Temp;Humidity;BMP_temperature;BMP_pressure;BME280_temperature;BME280_humidity;BME280_pressure;Samples;Min_cycle;Max_cycle;Signal;HPM_P1;HPM_P2
2021/09/28 00:00:39;;;;;;;25.63;13.10;;;;;;;;;;6239117;23;20008;-75
2021/09/28 00:03:06;;;;;;;21.27;12.70;;;;;;;;;;6238857;23;20065;-76
2021/09/28 00:05:32;;;;;;;24.55;14.13;;;;;;;;;;6238994;23;20004;-74
2021/09/28 00:07:59;;;;;;;23.13;13.15;;;;;;;;;;6237014;23;20022;-75
2021/09/28 00:10:25;;;;;;;21.40;11.77;;;;;;;;;;6239307;23;20390;-76
2021/09/28 00:12:51;;;;;;;29.17;13.13;;;;;;;;;;6238469;23;19996;-75
2021/09/28 00:15:18;;;;;;;16.95;11.30;;;;;;;;;;6238872;23;20032;-76
2021/09/28 00:17:44;;;;;;;19.75;12.25;;;;;;;;;;6233480;23;20010;-74
2021/09/28 00:20:11;;;;;;;19.10;12.43;;;;;;;;;;6232428;23;20008;-75
2021/09/28 00:22:38;;;;;;;21.10;12.27;;;;;;;;;;6232368;23;20047;-74
2021/09/28 00:25:05;;;;;;;22.25;12.63;;;;;;;;;;6232205;23;20000;-74
2021/09/28 00:27:32;;;;;;;18.65;12.27;;;;;;;;;;6232468;23;20052;-75
2021/09/28 00:29:59;;;;;;;22.70;13.02;;;;;;;;;;6231750;23;20008;-75
2021/09/28 00:32:25;;;;;;;28.88;13.43;;;;;;;;;;6230063;23;20015;-75
2021/09/28 00:34:51;;;;;;;24.60;13.85;;;;;;;;;;6232955;23;20075;-75
2021/09/28 00:37:18;;;;;;;22.05;14.68;;;;;;;;;;6232004;23;20099;-75
2021/09/28 00:39:44;;;;;;;30.00;15.35;;;;;;;;;;6233298;23;20483;-74
2021/09/28 00:42:10;;;;;;;23.25;14.70;;;;;;;;;;6204083;23;20468;-75
2021/09/28 00:44:38;;;;;;;30.27;17.10;;;;;;;;;;6232396;23;20551;-75
2021/09/28 00:47:10;;;;;;;21.77;15.93;;;;;;;;;;6232758;23;20032;-75
2021/09/28 00:49:38;;;;;;;29.85;16.17;;;;;;;;;;6232166;23;20010;-76
2021/09/28 00:52:05;;;;;;;27.75;17.65;;;;;;;;;;6230835;23;20083;-76
2021/09/28 00:54:31;;;;;;;32.40;18.80;;;;;;;;;;6204961;23;20436;-75
2021/09/28 00:56:58;;;;;;;34.22;19.88;;;;;;;;;;6232622;23;20011;-75
2021/09/28 00:59:24;;;;;;;32.75;21.50;;;;;;;;;;6231984;22;20559;-78
2021/09/28 01:01:51;;;;;;;30.77;21.55;;;;;;;;;;6232098;23;20087;-75
2021/09/28 01:04:17;;;;;;;35.13;22.45;;;;;;;;;;6231109;23;20508;-75
2021/09/28 01:06:44;;;;;;;30.83;22.27;;;;;;;;;;6230421;23;19996;-74
2021/09/28 01:09:13;;;;;;;37.75;22.25;;;;;;;;;;6232082;23;20091;-76
2021/09/28 01:11:40;;;;;;;39.33;23.55;;;;;;;;;;6232662;23;20015;-75
2021/09/28 01:14:09;;;;;;;36.92;21.35;;;;;;;;;;6232054;23;20011;-77
2021/09/28 01:16:35;;;;;;;37.72;24.70;;;;;;;;;;6230749;23;20062;-74
2021/09/28 01:19:02;;;;;;;34.22;23.95;;;;;;;;;;6231625;23;20007;-75
2021/09/28 01:21:29;;;;;;;37.08;25.30;;;;;;;;;;6232807;23;20386;-75
2021/09/28 01:23:55;;;;;;;41.72;24.88;;;;;;;;;;6233561;23;20649;-74
2021/09/28 01:26:25;;;;;;;41.03;25.02;;;;;;;;;;6234363;23;20058;-74
2021/09/28 01:28:52;;;;;;;41.47;26.88;;;;;;;;;;6235207;23;20000;-75
2021/09/28 01:31:19;;;;;;;39.15;27.13;;;;;;;;;;6235672;23;20082;-74
2021/09/28 01:33:45;;;;;;;36.42;26.25;;;;;;;;;;6235215;23;20024;-74
2021/09/28 01:36:12;;;;;;;38.60;25.05;;;;;;;;;;6237437;23;20007;-74
2021/09/28 01:38:38;;;;;;;40.40;26.17;;;;;;;;;;6237466;23;20010;-74
2021/09/28 01:41:04;;;;;;;34.30;25.92;;;;;;;;;;6235343;23;20010;-74
2021/09/28 01:43:31;;;;;;;41.17;27.38;;;;;;;;;;6237756;23;20014;-74
2021/09/28 01:45:58;;;;;;;36.17;26.88;;;;;;;;;;6236257;23;20062;-74
2021/09/28 01:48:27;;;;;;;41.15;27.73;;;;;;;;;;6237599;23;20055;-76
2021/09/28 01:50:54;;;;;;;44.58;28.50;;;;;;;;;;6236042;23;19996;-74
2021/09/28 01:53:20;;;;;;;46.30;29.45;;;;;;;;;;6234914;23;20004;-75
2021/09/28 01:55:46;;;;;;;43.15;28.40;;;;;;;;;;6237107;23;20463;-75
2021/09/28 01:58:14;;;;;;;33.97;27.23;;;;;;;;;;6237293;22;20110;-74
2021/09/28 02:00:41;;;;;;;34.97;27.77;;;;;;;;;;6235445;23;20032;-74
2021/09/28 02:03:08;;;;;;;41.45;25.20;;;;;;;;;;6236016;23;20554;-77
2021/09/28 02:05:34;;;;;;;42.10;27.17;;;;;;;;;;6235302;23;20028;-77
2021/09/28 02:08:00;;;;;;;37.65;26.50;;;;;;;;;;6234791;23;20083;-74
2021/09/28 02:10:26;;;;;;;40.53;26.60;;;;;;;;;;6233692;23;20087;-75
2021/09/28 02:12:52;;;;;;;38.30;26.80;;;;;;;;;;6233760;23;20004;-77
2021/09/28 02:15:19;;;;;;;34.35;24.25;;;;;;;;;;6232650;23;20004;-75
2021/09/28 02:17:45;;;;;;;34.88;24.73;;;;;;;;;;6231335;23;20103;-75
2021/09/28 02:20:11;;;;;;;31.70;22.50;;;;;;;;;;6233119;23;20010;-74
2021/09/28 02:22:37;;;;;;;35.88;24.35;;;;;;;;;;6234265;23;20087;-75
2021/09/28 02:25:04;;;;;;;32.22;22.48;;;;;;;;;;6233523;23;20083;-74
2021/09/28 02:27:30;;;;;;;32.95;21.55;;;;;;;;;;6232382;23;20004;-75
2021/09/28 02:29:57;;;;;;;33.83;25.45;;;;;;;;;;6233194;23;20083;-75
2021/09/28 02:32:23;;;;;;;34.95;23.95;;;;;;;;;;6233642;23;20034;-75
2021/09/28 02:34:49;;;;;;;36.92;24.85;;;;;;;;;;6234752;23;20079;-74
2021/09/28 02:37:15;;;;;;;35.53;23.80;;;;;;;;;;6233719;23;20732;-74
2021/09/28 02:39:42;;;;;;;38.22;23.55;;;;;;;;;;6233840;23;20008;-74
2021/09/28 02:42:08;;;;;;;35.13;23.90;;;;;;;;;;6231726;23;20016;-74
2021/09/28 02:44:35;;;;;;;42.10;25.38;;;;;;;;;;6234150;23;20011;-75
2021/09/28 02:47:01;;;;;;;35.80;24.98;;;;;;;;;;6233741;23;20008;-75
2021/09/28 02:49:27;;;;;;;36.95;24.27;;;;;;;;;;6233055;23;20000;-74
2021/09/28 02:51:53;;;;;;;33.97;22.55;;;;;;;;;;6233267;23;20011;-75
2021/09/28 02:54:20;;;;;;;37.05;23.70;;;;;;;;;;6231698;23;20031;-75
2021/09/28 02:56:46;;;;;;;30.20;23.00;;;;;;;;;;6233255;23;20004;-75
2021/09/28 02:59:12;;;;;;;39.05;23.15;;;;;;;;;;6233376;22;20310;-75
2021/09/28 03:01:38;;;;;;;39.03;22.05;;;;;;;;;;6233123;23;20030;-76
2021/09/28 03:04:05;;;;;;;40.30;22.95;;;;;;;;;;6229548;23;20011;-77
2021/09/28 03:06:31;;;;;;;34.47;21.83;;;;;;;;;;6227641;23;20003;-74
2021/09/28 03:08:58;;;;;;;37.33;23.67;;;;;;;;;;6233381;23;20079;-74
2021/09/28 03:11:26;;;;;;;37.17;23.35;;;;;;;;;;6233594;23;20615;-75
2021/09/28 03:13:53;;;;;;;35.25;22.90;;;;;;;;;;6233469;23;21013;-74
2021/09/28 03:16:19;;;;;;;35.58;24.13;;;;;;;;;;6231383;23;20353;-74
2021/09/28 03:18:46;;;;;;;33.97;23.02;;;;;;;;;;6233208;23;20003;-74
2021/09/28 03:21:12;;;;;;;37.63;22.67;;;;;;;;;;6232516;23;20043;-76
2021/09/28 03:23:38;;;;;;;36.80;23.42;;;;;;;;;;6233529;23;20004;-74
2021/09/28 03:26:04;;;;;;;41.60;24.45;;;;;;;;;;6232998;23;20091;-74
2021/09/28 03:28:32;;;;;;;36.90;24.40;;;;;;;;;;6232055;23;20210;-74
2021/09/28 03:30:58;;;;;;;37.72;24.08;;;;;;;;;;6232787;23;20004;-76
2021/09/28 03:33:25;;;;;;;38.05;23.45;;;;;;;;;;6232925;23;20012;-75
2021/09/28 03:35:51;;;;;;;41.33;23.90;;;;;;;;;;6230827;23;20043;-75
2021/09/28 03:38:17;;;;;;;40.83;24.73;;;;;;;;;;6228604;23;20011;-75
2021/09/28 03:40:43;;;;;;;40.28;24.13;;;;;;;;;;6230088;23;20115;-74
2021/09/28 03:43:10;;;;;;;39.00;23.98;;;;;;;;;;6230294;23;20008;-74
2021/09/28 03:45:36;;;;;;;38.70;22.85;;;;;;;;;;6228021;23;19993;-75
2021/09/28 03:48:03;;;;;;;46.17;23.80;;;;;;;;;;6227573;23;20008;-74
2021/09/28 03:50:29;;;;;;;38.22;24.08;;;;;;;;;;6229166;23;20027;-74
2021/09/28 03:52:57;;;;;;;41.70;24.48;;;;;;;;;;6229579;23;20011;-76
2021/09/28 03:55:23;;;;;;;35.83;22.98;;;;;;;;;;6230351;23;20014;-76
2021/09/28 03:57:50;;;;;;;41.85;23.60;;;;;;;;;;6203551;23;20004;-75
2021/09/28 04:00:18;;;;;;;40.72;23.27;;;;;;;;;;6230003;23;20099;-75
2021/09/28 04:02:44;;;;;;;38.03;22.90;;;;;;;;;;6227156;23;20047;-75
2021/09/28 04:05:10;;;;;;;38.22;23.60;;;;;;;;;;6230654;23;20004;-75
2021/09/28 04:07:37;;;;;;;36.63;23.88;;;;;;;;;;6229088;23;20088;-76
2021/09/28 04:10:04;;;;;;;38.55;24.35;;;;;;;;;;6202705;23;20073;-75
2021/09/28 04:12:30;;;;;;;39.53;23.65;;;;;;;;;;6227377;23;20015;-75
2021/09/28 04:14:58;;;;;;;41.95;22.88;;;;;;;;;;6229540;23;20075;-75
2021/09/28 04:17:24;;;;;;;40.25;23.00;;;;;;;;;;6229244;23;20514;-75
2021/09/28 04:19:51;;;;;;;42.47;24.48;;;;;;;;;;6228982;23;20004;-75
2021/09/28 04:22:17;;;;;;;34.95;23.05;;;;;;;;;;6228753;23;20008;-75
2021/09/28 04:24:43;;;;;;;36.00;22.73;;;;;;;;;;6229579;23;20583;-75
2021/09/28 04:27:10;;;;;;;43.25;23.60;;;;;;;;;;6227629;23;20034;-75
2021/09/28 04:29:36;;;;;;;38.88;24.05;;;;;;;;;;6229538;23;20004;-75
2021/09/28 04:32:02;;;;;;;35.88;22.38;;;;;;;;;;6228958;23;20107;-75
2021/09/28 04:34:28;;;;;;;38.58;21.55;;;;;;;;;;6228338;23;20680;-75
2021/09/28 04:36:55;;;;;;;33.60;21.52;;;;;;;;;;6227603;23;20036;-75
2021/09/28 04:39:21;;;;;;;41.90;22.30;;;;;;;;;;6229406;23;20000;-75
2021/09/28 04:41:47;;;;;;;33.65;20.80;;;;;;;;;;6228916;23;20341;-75
2021/09/28 04:44:13;;;;;;;38.95;21.85;;;;;;;;;;6229534;23;20083;-75
2021/09/28 04:46:39;;;;;;;34.65;21.27;;;;;;;;;;6224718;23;20004;-75
2021/09/28 04:49:06;;;;;;;52.13;21.77;;;;;;;;;;6202485;23;20011;-77
2021/09/28 04:51:32;;;;;;;36.28;20.73;;;;;;;;;;6227646;23;20008;-71
2021/09/28 04:53:58;;;;;;;37.22;21.63;;;;;;;;;;6229184;23;20087;-75
2021/09/28 04:56:24;;;;;;;40.63;22.75;;;;;;;;;;6231001;23;20031;-75
2021/09/28 04:58:51;;;;;;;36.65;21.67;;;;;;;;;;6229691;22;20066;-74
2021/09/28 05:01:17;;;;;;;33.72;21.45;;;;;;;;;;6231937;23;20032;-74
2021/09/28 05:03:43;;;;;;;39.10;21.73;;;;;;;;;;6231927;23;20035;-74
2021/09/28 05:06:09;;;;;;;30.73;20.52;;;;;;;;;;6231457;23;20004;-74
2021/09/28 05:08:35;;;;;;;31.67;21.33;;;;;;;;;;6232165;23;20087;-77
2021/09/28 05:11:01;;;;;;;35.92;21.05;;;;;;;;;;6230668;23;20090;-79
2021/09/28 05:13:28;;;;;;;36.63;21.70;;;;;;;;;;6232494;23;20413;-74
2021/09/28 05:15:54;;;;;;;37.28;21.92;;;;;;;;;;6232677;23;20004;-75
2021/09/28 05:18:21;;;;;;;40.78;22.08;;;;;;;;;;6231986;23;20936;-74
2021/09/28 05:20:47;;;;;;;38.03;20.75;;;;;;;;;;6231281;23;20004;-80
2021/09/28 05:23:13;;;;;;;32.10;20.88;;;;;;;;;;6231524;23;20051;-74
2021/09/28 05:25:39;;;;;;;31.33;19.83;;;;;;;;;;6230011;23;20028;-74
2021/09/28 05:28:05;;;;;;;36.10;20.27;;;;;;;;;;6232615;23;20024;-76
2021/09/28 05:30:32;;;;;;;36.95;20.20;;;;;;;;;;6232410;23;20054;-75
2021/09/28 05:32:58;;;;;;;40.00;22.52;;;;;;;;;;6232033;23;20028;-76
2021/09/28 05:35:24;;;;;;;31.23;20.52;;;;;;;;;;6229490;23;20038;-76
2021/09/28 05:37:50;;;;;;;33.78;21.35;;;;;;;;;;6231608;23;20004;-77
2021/09/28 05:40:16;;;;;;;34.08;20.98;;;;;;;;;;6232505;23;20000;-75
2021/09/28 05:42:43;;;;;;;39.05;21.33;;;;;;;;;;6232014;23;20532;-76
2021/09/28 05:45:09;;;;;;;36.17;20.13;;;;;;;;;;6230957;23;20007;-75
2021/09/28 05:47:35;;;;;;;35.28;20.05;;;;;;;;;;6229794;23;20004;-74
2021/09/28 05:50:01;;;;;;;26.63;20.20;;;;;;;;;;6230965;23;20070;-76
2021/09/28 05:52:28;;;;;;;38.55;21.45;;;;;;;;;;6231702;23;20075;-80
2021/09/28 05:54:54;;;;;;;37.38;20.48;;;;;;;;;;6230745;23;20396;-78
2021/09/28 05:57:21;;;;;;;29.42;20.58;;;;;;;;;;6231042;22;20000;-71
2021/09/28 05:59:48;;;;;;;33.78;21.92;;;;;;;;;;6232154;23;20024;-72
2021/09/28 06:02:15;;;;;;;29.33;20.80;;;;;;;;;;6230930;23;20012;-72
2021/09/28 06:04:41;;;;;;;31.58;21.02;;;;;;;;;;6230280;23;20008;-72
2021/09/28 06:07:08;;;;;;;29.83;21.23;;;;;;;;;;6232196;23;20083;-72
2021/09/28 06:09:38;;;;;;;31.27;20.85;;;;;;;;;;6232512;23;20011;-72
2021/09/28 06:12:05;;;;;;;32.97;20.80;;;;;;;;;;6232200;23;20047;-71
2021/09/28 06:14:32;;;;;;;29.65;19.65;;;;;;;;;;6232037;23;20086;-74
2021/09/28 06:16:58;;;;;;;30.05;20.55;;;;;;;;;;6232677;23;20480;-71
2021/09/28 06:19:25;;;;;;;31.42;20.83;;;;;;;;;;6232380;23;20066;-78
2021/09/28 06:21:51;;;;;;;29.90;20.83;;;;;;;;;;6232300;23;20527;-74
2021/09/28 06:24:18;;;;;;;36.67;21.88;;;;;;;;;;6234260;23;20004;-73
2021/09/28 06:26:45;;;;;;;35.58;21.23;;;;;;;;;;6231553;23;20008;-73
2021/09/28 06:29:11;;;;;;;28.00;19.98;;;;;;;;;;6233337;23;20011;-72
2021/09/28 06:31:37;;;;;;;29.70;20.88;;;;;;;;;;6233969;23;20261;-72
2021/09/28 06:34:03;;;;;;;25.83;19.88;;;;;;;;;;6206928;23;20012;-74
2021/09/28 06:36:30;;;;;;;30.60;20.60;;;;;;;;;;6233811;23;20093;-76
2021/09/28 06:38:56;;;;;;;33.03;20.92;;;;;;;;;;6232521;23;20012;-72
2021/09/28 06:41:26;;;;;;;33.17;20.27;;;;;;;;;;6233473;23;20024;-72
2021/09/28 06:43:53;;;;;;;26.90;20.52;;;;;;;;;;6233841;23;20437;-73
2021/09/28 06:46:19;;;;;;;25.33;18.17;;;;;;;;;;6233424;23;20568;-73
2021/09/28 06:48:45;;;;;;;28.52;20.13;;;;;;;;;;6233582;23;20015;-75
2021/09/28 06:51:11;;;;;;;32.03;19.45;;;;;;;;;;6228697;23;19996;-72
2021/09/28 06:53:37;;;;;;;24.45;19.30;;;;;;;;;;6230160;23;20157;-73
2021/09/28 06:56:04;;;;;;;28.00;18.63;;;;;;;;;;6233480;23;20464;-74
2021/09/28 06:58:30;;;;;;;25.60;18.85;;;;;;;;;;6233838;22;20097;-72
2021/09/28 07:00:56;;;;;;;30.23;19.15;;;;;;;;;;6234257;23;20006;-72
2021/09/28 07:03:23;;;;;;;29.48;20.85;;;;;;;;;;6231034;23;20023;-79
2021/09/28 07:05:49;;;;;;;30.67;20.60;;;;;;;;;;6233821;23;20001;-73
2021/09/28 07:08:16;;;;;;;35.83;21.60;;;;;;;;;;6234343;23;20000;-76
2021/09/28 07:10:42;;;;;;;27.75;20.23;;;;;;;;;;6233383;23;20047;-75
2021/09/28 07:13:08;;;;;;;26.90;20.27;;;;;;;;;;6230978;23;20075;-72
2021/09/28 07:15:35;;;;;;;33.42;20.70;;;;;;;;;;6233419;23;20418;-72
2021/09/28 07:18:01;;;;;;;29.23;21.23;;;;;;;;;;6233780;23;20121;-75
2021/09/28 07:20:28;;;;;;;35.28;21.27;;;;;;;;;;6205302;23;20325;-76
2021/09/28 07:22:54;;;;;;;31.00;22.73;;;;;;;;;;6232855;23;20008;-76
2021/09/28 07:25:21;;;;;;;26.48;20.48;;;;;;;;;;6230750;23;20011;-75
2021/09/28 07:27:47;;;;;;;32.00;22.02;;;;;;;;;;6232111;23;20115;-78
2021/09/28 07:30:13;;;;;;;29.58;19.50;;;;;;;;;;6232517;23;20007;-76
2021/09/28 07:32:39;;;;;;;33.83;21.77;;;;;;;;;;6232813;23;20027;-75
2021/09/28 07:35:07;;;;;;;27.38;21.63;;;;;;;;;;6231369;23;20315;-75
2021/09/28 07:37:34;;;;;;;30.60;21.02;;;;;;;;;;6233657;23;20011;-74
2021/09/28 07:40:01;;;;;;;33.90;21.70;;;;;;;;;;6233224;23;20035;-75
2021/09/28 07:42:27;;;;;;;32.95;21.05;;;;;;;;;;6232902;23;20012;-75
2021/09/28 07:44:55;;;;;;;25.95;21.75;;;;;;;;;;6233349;23;20000;-75
2021/09/28 07:47:21;;;;;;;30.52;21.33;;;;;;;;;;6232105;23;20011;-74
2021/09/28 07:49:47;;;;;;;30.88;21.50;;;;;;;;;;6232319;23;20031;-75
2021/09/28 07:52:14;;;;;;;33.78;22.92;;;;;;;;;;6232668;23;20893;-75
2021/09/28 07:54:40;;;;;;;35.08;22.58;;;;;;;;;;6232813;23;20380;-75
2021/09/28 07:57:08;;;;;;;30.65;20.83;;;;;;;;;;6233127;22;20231;-76
2021/09/28 07:59:34;;;;;;;29.35;20.67;;;;;;;;;;6233033;23;20008;-78
2021/09/28 08:02:00;;;;;;;28.55;19.95;;;;;;;;;;6230566;23;20433;-75
2021/09/28 08:04:26;;;;;;;26.38;20.63;;;;;;;;;;6233292;23;20027;-75
2021/09/28 08:06:54;;;;;;;24.15;19.50;;;;;;;;;;6233371;23;20079;-75
2021/09/28 08:09:21;;;;;;;25.58;18.92;;;;;;;;;;6233808;23;20569;-76
2021/09/28 08:11:47;;;;;;;29.13;19.15;;;;;;;;;;6231961;23;20000;-74
2021/09/28 08:14:13;;;;;;;21.42;18.48;;;;;;;;;;6231050;23;20079;-74
2021/09/28 08:16:39;;;;;;;27.20;18.73;;;;;;;;;;6232396;23;20430;-74
2021/09/28 08:19:06;;;;;;;29.67;19.50;;;;;;;;;;6231952;23;20016;-74
2021/09/28 08:21:32;;;;;;;26.83;18.80;;;;;;;;;;6231227;23;20004;-74
2021/09/28 08:23:59;;;;;;;29.55;19.15;;;;;;;;;;6231354;23;20012;-74
2021/09/28 08:29:10;;;;;;;24.67;18.10;;;;;;;;;;6241148;23;20099;-74
2021/09/28 08:31:37;;;;;;;29.27;18.45;;;;;;;;;;6230882;23;20011;-75
2021/09/28 08:34:04;;;;;;;25.85;20.15;;;;;;;;;;6229293;23;20081;-75
2021/09/28 08:36:30;;;;;;;32.17;21.17;;;;;;;;;;6231006;23;20607;-74
2021/09/28 08:38:57;;;;;;;29.23;19.90;;;;;;;;;;6232355;23;20008;-74
2021/09/28 08:41:23;;;;;;;31.70;21.25;;;;;;;;;;6232704;23;20000;-79
2021/09/28 08:43:50;;;;;;;34.22;21.27;;;;;;;;;;6230611;23;20053;-75
2021/09/28 08:46:17;;;;;;;32.03;22.55;;;;;;;;;;6232642;23;20567;-73
2021/09/28 08:48:43;;;;;;;30.55;20.15;;;;;;;;;;6232713;23;20076;-74
2021/09/28 08:51:10;;;;;;;31.63;21.67;;;;;;;;;;6231178;23;20381;-74
2021/09/28 08:53:36;;;;;;;27.17;21.45;;;;;;;;;;6230198;23;20730;-74
2021/09/28 08:56:04;;;;;;;32.97;22.20;;;;;;;;;;6231958;23;20003;-74
2021/09/28 08:58:31;;;;;;;35.25;20.75;;;;;;;;;;6232797;22;20007;-78
2021/09/28 09:01:07;;;;;;;25.85;21.95;;;;;;;;;;6232851;23;20054;-75
2021/09/28 09:03:35;;;;;;;26.13;20.02;;;;;;;;;;6232234;23;20376;-75
2021/09/28 09:06:02;;;;;;;29.70;20.45;;;;;;;;;;6230647;23;20379;-74
2021/09/28 09:08:30;;;;;;;25.52;18.75;;;;;;;;;;6233252;23;20031;-75
2021/09/28 09:11:00;;;;;;;23.45;18.40;;;;;;;;;;6232544;23;19996;-74
2021/09/28 09:13:33;;;;;;;26.05;18.13;;;;;;;;;;6232324;23;20032;-76
2021/09/28 09:16:00;;;;;;;26.95;17.80;;;;;;;;;;6230314;23;20063;-74
2021/09/28 09:18:26;;;;;;;23.75;18.10;;;;;;;;;;6232741;23;20080;-73
2021/09/28 09:20:52;;;;;;;25.00;16.73;;;;;;;;;;6231534;23;20028;-76
2021/09/28 09:23:22;;;;;;;27.30;18.52;;;;;;;;;;6232110;23;20419;-76
2021/09/28 09:25:58;;;;;;;23.25;17.77;;;;;;;;;;6232185;23;19996;-73
2021/09/28 09:28:32;;;;;;;26.00;16.90;;;;;;;;;;6231746;23;20004;-78
2021/09/28 09:31:22;;;;;;;22.73;15.00;;;;;;;;;;6230524;23;20012;-74
2021/09/28 09:33:48;;;;;;;24.08;15.63;;;;;;;;;;6216518;23;20024;-74
2021/09/28 09:36:18;;;;;;;23.63;16.73;;;;;;;;;;6232462;23;19996;-74
2021/09/28 09:38:48;;;;;;;20.50;16.33;;;;;;;;;;6232298;23;20015;-74
2021/09/28 09:41:15;;;;;;;26.00;18.25;;;;;;;;;;6232381;23;20067;-74
2021/09/28 09:43:43;;;;;;;26.48;19.23;;;;;;;;;;6230930;23;20012;-75
2021/09/28 09:46:16;;;;;;;23.73;16.52;;;;;;;;;;6232371;23;20026;-75
2021/09/28 09:48:43;;;;;;;25.80;16.52;;;;;;;;;;6232625;23;20093;-75
2021/09/28 09:51:19;;;;;;;25.88;14.68;;;;;;;;;;6231410;23;20000;-72
2021/09/28 09:53:52;;;;;;;21.88;13.48;;;;;;;;;;6233817;23;20023;-71
2021/09/28 09:56:19;;;;;;;22.65;15.80;;;;;;;;;;6234766;23;20031;-70
2021/09/28 09:58:46;;;;;;;20.15;14.82;;;;;;;;;;6235191;22;20015;-75
2021/09/28 10:01:12;;;;;;;23.10;14.43;;;;;;;;;;6234767;23;20283;-70
2021/09/28 10:03:39;;;;;;;29.42;16.17;;;;;;;;;;6234143;23;20019;-70
2021/09/28 10:06:06;;;;;;;21.90;13.70;;;;;;;;;;6233535;23;20130;-77
2021/09/28 10:08:32;;;;;;;23.13;14.68;;;;;;;;;;6232379;23;20011;-70
2021/09/28 10:11:00;;;;;;;15.07;12.05;;;;;;;;;;6234403;23;20000;-72
2021/09/28 10:13:45;;;;;;;15.73;12.27;;;;;;;;;;6234195;23;20015;-70
2021/09/28 10:16:30;;;;;;;23.50;14.77;;;;;;;;;;6232477;23;20441;-70
2021/09/28 10:18:56;;;;;;;26.40;15.82;;;;;;;;;;6233676;23;20003;-72
2021/09/28 10:21:35;;;;;;;20.98;15.57;;;;;;;;;;6233186;23;20012;-78
2021/09/28 10:24:20;;;;;;;24.02;13.88;;;;;;;;;;6234303;23;20086;-69
2021/09/28 10:26:47;;;;;;;21.25;14.40;;;;;;;;;;6234203;23;20079;-74
2021/09/28 10:29:32;;;;;;;23.95;13.85;;;;;;;;;;6231610;23;20090;-70
2021/09/28 10:31:58;;;;;;;24.05;13.18;;;;;;;;;;6230923;23;20008;-73
2021/09/28 10:34:44;;;;;;;22.75;13.68;;;;;;;;;;6231242;23;20082;-70
2021/09/28 10:37:10;;;;;;;19.92;13.50;;;;;;;;;;6204515;23;20054;-70
2021/09/28 10:39:37;;;;;;;26.48;14.40;;;;;;;;;;6231075;23;20084;-70
2021/09/28 10:42:03;;;;;;;18.83;13.85;;;;;;;;;;6229446;23;20066;-70
2021/09/28 10:44:34;;;;;;;21.58;15.07;;;;;;;;;;6231704;23;20031;-70
2021/09/28 10:47:01;;;;;;;27.23;15.75;;;;;;;;;;6231585;23;20004;-69
2021/09/28 10:49:29;;;;;;;25.70;15.98;;;;;;;;;;6231298;23;20011;-71
2021/09/28 10:52:14;;;;;;;32.83;16.05;;;;;;;;;;6229155;23;20004;-70
2021/09/28 10:54:58;;;;;;;29.25;16.15;;;;;;;;;;6231185;23;20001;-70
2021/09/28 10:57:44;;;;;;;28.85;17.90;;;;;;;;;;6230985;22;20079;-70
2021/09/28 11:00:11;;;;;;;33.38;19.40;;;;;;;;;;6230562;23;20012;-70
2021/09/28 11:02:51;;;;;;;33.42;20.50;;;;;;;;;;6230465;23;20708;-71
2021/09/28 11:05:32;;;;;;;36.45;19.90;;;;;;;;;;6231049;23;20000;-69
2021/09/28 11:07:59;;;;;;;31.75;16.65;;;;;;;;;;6231152;23;20055;-70
2021/09/28 11:10:25;;;;;;;29.13;18.45;;;;;;;;;;6230135;23;20004;-70
2021/09/28 11:12:51;;;;;;;21.17;14.70;;;;;;;;;;6228576;23;20087;-69
2021/09/28 11:15:18;;;;;;;26.67;14.00;;;;;;;;;;6230875;23;20847;-69
2021/09/28 11:17:44;;;;;;;25.08;14.68;;;;;;;;;;6230139;23;20453;-72
2021/09/28 11:20:27;;;;;;;27.20;14.23;;;;;;;;;;6227608;23;20602;-70
2021/09/28 11:22:54;;;;;;;23.48;14.45;;;;;;;;;;6228862;23;20671;-73
2021/09/28 11:25:20;;;;;;;26.73;14.68;;;;;;;;;;6231230;23;20004;-72
2021/09/28 11:28:05;;;;;;;25.75;13.85;;;;;;;;;;6230867;23;20432;-69
2021/09/28 11:30:34;;;;;;;20.55;13.32;;;;;;;;;;6229263;23;20091;-70
2021/09/28 11:33:04;;;;;;;22.17;13.93;;;;;;;;;;6230246;23;20564;-70
2021/09/28 11:35:30;;;;;;;22.55;13.52;;;;;;;;;;6230579;23;20440;-69
2021/09/28 11:37:59;;;;;;;19.90;13.85;;;;;;;;;;6231133;23;20004;-73
2021/09/28 11:40:36;;;;;;;22.15;13.75;;;;;;;;;;6203696;23;20008;-69
2021/09/28 11:43:20;;;;;;;23.20;13.27;;;;;;;;;;6230653;23;20078;-70
2021/09/28 11:46:07;;;;;;;22.13;12.75;;;;;;;;;;6228900;23;20051;-69
2021/09/28 11:48:37;;;;;;;29.90;11.40;;;;;;;;;;6203190;23;20713;-69
2021/09/28 11:51:14;;;;;;;20.15;10.70;;;;;;;;;;6228952;23;20504;-69
2021/09/28 11:53:44;;;;;;;21.05;11.45;;;;;;;;;;6227677;23;20042;-69
2021/09/28 11:56:12;;;;;;;21.30;11.68;;;;;;;;;;6230004;23;20321;-72
2021/09/28 11:58:39;;;;;;;21.15;10.65;;;;;;;;;;6229557;22;20090;-71
2021/09/28 12:01:09;;;;;;;20.92;11.02;;;;;;;;;;6230495;23;20004;-69
2021/09/28 12:03:41;;;;;;;20.20;10.70;;;;;;;;;;6230547;23;20175;-69
2021/09/28 12:06:18;;;;;;;18.85;9.50;;;;;;;;;;6227955;23;20032;-69
2021/09/28 12:08:47;;;;;;;15.45;9.38;;;;;;;;;;6229865;23;20037;-69
2021/09/28 12:11:13;;;;;;;13.82;8.60;;;;;;;;;;6229569;23;20011;-71
2021/09/28 12:13:47;;;;;;;16.05;8.20;;;;;;;;;;6230606;23;20028;-69
2021/09/28 12:16:20;;;;;;;15.73;8.43;;;;;;;;;;6229896;23;20000;-68
2021/09/28 12:18:46;;;;;;;14.75;7.25;;;;;;;;;;6228171;23;20015;-73
2021/09/28 12:21:17;;;;;;;14.20;7.35;;;;;;;;;;6226134;23;20054;-69
2021/09/28 12:23:44;;;;;;;12.65;7.40;;;;;;;;;;6229744;23;20008;-69
2021/09/28 12:26:29;;;;;;;13.02;7.07;;;;;;;;;;6229983;23;20011;-73
2021/09/28 12:28:56;;;;;;;14.75;6.18;;;;;;;;;;6229809;23;20004;-75
2021/09/28 12:31:32;;;;;;;9.07;5.75;;;;;;;;;;6229990;23;20089;-69
2021/09/28 12:33:59;;;;;;;12.23;5.80;;;;;;;;;;6229128;23;20098;-70
2021/09/28 12:36:25;;;;;;;15.88;5.63;;;;;;;;;;6230610;23;20027;-68
2021/09/28 12:39:09;;;;;;;12.93;5.50;;;;;;;;;;6230126;23;20008;-69
2021/09/28 12:41:54;;;;;;;11.10;5.57;;;;;;;;;;6227415;23;20099;-69
2021/09/28 12:44:23;;;;;;;11.32;6.05;;;;;;;;;;6230059;23;20012;-70
2021/09/28 12:46:50;;;;;;;9.88;5.15;;;;;;;;;;6230250;23;20325;-69
2021/09/28 12:49:29;;;;;;;10.13;5.70;;;;;;;;;;6221261;23;20122;-69
2021/09/28 12:51:56;;;;;;;11.65;5.40;;;;;;;;;;6230480;23;20008;-69
2021/09/28 12:54:22;;;;;;;10.85;6.03;;;;;;;;;;6229741;23;20015;-69
2021/09/28 12:56:49;;;;;;;20.27;5.30;;;;;;;;;;6227886;22;20008;-69
2021/09/28 12:59:15;;;;;;;11.25;5.07;;;;;;;;;;6229918;23;20011;-72
2021/09/28 13:01:48;;;;;;;14.32;5.22;;;;;;;;;;6227572;23;20008;-70
2021/09/28 13:04:17;;;;;;;10.65;4.75;;;;;;;;;;6198801;23;20087;-69
2021/09/28 13:06:48;;;;;;;15.02;5.45;;;;;;;;;;6229229;23;20024;-69
2021/09/28 13:09:14;;;;;;;11.63;5.10;;;;;;;;;;6229125;23;20011;-69
2021/09/28 13:11:41;;;;;;;7.45;4.20;;;;;;;;;;6229254;23;20008;-69
2021/09/28 13:14:07;;;;;;;11.38;4.70;;;;;;;;;;6229133;23;20065;-71
2021/09/28 13:16:34;;;;;;;6.70;4.43;;;;;;;;;;6226650;23;20398;-72
2021/09/28 13:19:00;;;;;;;10.85;4.38;;;;;;;;;;6228900;23;20008;-70
2021/09/28 13:21:26;;;;;;;9.95;4.60;;;;;;;;;;6227319;23;20027;-71
2021/09/28 13:23:53;;;;;;;6.95;4.25;;;;;;;;;;6229700;23;20337;-70
2021/09/28 13:26:19;;;;;;;10.02;4.75;;;;;;;;;;6228615;23;20000;-70
2021/09/28 13:28:45;;;;;;;8.60;4.90;;;;;;;;;;6227868;23;20066;-70
2021/09/28 13:31:11;;;;;;;8.95;4.38;;;;;;;;;;6228340;23;20665;-72
2021/09/28 13:33:37;;;;;;;8.20;4.57;;;;;;;;;;6228769;23;20016;-70
2021/09/28 13:36:04;;;;;;;5.50;4.22;;;;;;;;;;6228947;23;20014;-73
2021/09/28 13:38:30;;;;;;;8.10;4.40;;;;;;;;;;6227608;23;20039;-70
2021/09/28 13:40:56;;;;;;;7.93;4.05;;;;;;;;;;6228919;23;20075;-69
2021/09/28 13:43:22;;;;;;;5.55;3.35;;;;;;;;;;6229593;23;20530;-69
2021/09/28 13:45:48;;;;;;;8.77;4.20;;;;;;;;;;6227752;23;20028;-71
2021/09/28 13:48:15;;;;;;;7.55;3.95;;;;;;;;;;6230131;23;20444;-70
2021/09/28 13:50:41;;;;;;;9.02;4.47;;;;;;;;;;6229518;23;20052;-69
2021/09/28 13:53:08;;;;;;;8.65;4.72;;;;;;;;;;6228889;23;20011;-70
2021/09/28 13:55:34;;;;;;;8.85;4.30;;;;;;;;;;6227754;23;20032;-70
2021/09/28 13:58:00;;;;;;;8.93;4.97;;;;;;;;;;6228914;22;20047;-70
2021/09/28 14:00:26;;;;;;;12.68;5.82;;;;;;;;;;6228912;23;20008;-71
2021/09/28 14:02:52;;;;;;;12.25;5.10;;;;;;;;;;6228386;23;20069;-70
2021/09/28 14:05:19;;;;;;;12.20;6.22;;;;;;;;;;6226864;23;20019;-70
2021/09/28 14:07:45;;;;;;;13.20;6.80;;;;;;;;;;6229145;23;20046;-72
2021/09/28 14:10:12;;;;;;;14.45;7.03;;;;;;;;;;6229133;23;20007;-70
2021/09/28 14:12:40;;;;;;;13.50;8.00;;;;;;;;;;6229568;23;20004;-72
2021/09/28 14:15:06;;;;;;;16.23;8.50;;;;;;;;;;6228021;23;20425;-75
2021/09/28 14:17:33;;;;;;;18.23;9.25;;;;;;;;;;6228736;23;20015;-71
2021/09/28 14:19:59;;;;;;;15.18;9.23;;;;;;;;;;6226966;23;20381;-71
2021/09/28 14:22:25;;;;;;;20.73;12.07;;;;;;;;;;6228719;23;20746;-70
2021/09/28 14:24:52;;;;;;;15.13;11.13;;;;;;;;;;6226698;23;20660;-70